»·PEaware :: N112PZ KUDD-KBUR

N112PZ :: KUDD-KBUR

FLIGHT INFORMATION

Flight Status: Arrived
Operator: Privately registered:
United States
More flights under this callsign
Pilot: Chris O. (30024)
Aircraft: BEECH AIRCRAFT A90-E90 KING AIR
(BE9L)
More flights by this aircraft type
Origin: KUDD Bermuda Dunes
United States
Destination: KBUR Bob Hope-Burbank
United States
More flights between these airports :: More routes between these airports
Route: PSP LATZY DEWAY DAAAY GARDY GABRE
File this flight plan on PilotEdge
Remarks: RMK / SIMBRIEF
Altitude:
(Current/Filed)
12,000ft
Speed:
(Current/Filed)
311kts
Departed: 22-Jun-20 10:55 AM
Arrived: 22-Jun-20 11:38 AM
Distance/Time
Traveled:
107nm/0:43
Distance/Time
To Go:
Arrived

Flight Plot

Page will automatically refresh every two minutes.

Flight plan parsing failed; only flown route is shown


Map Options




Map Legend


Flown Route
Filed Route
Departure Airport
Arrival Airport
Navaid (VOR, NDB)
Fix

Horizontal Profiles

Position Reports

Time Latitude Longitude Heading Altitude Ground
Speed
22-Jun-20 10:46 33.745684 -116.272795 93 59ft 0kts
22-Jun-20 10:47 33.745684 -116.272795 93 59ft 0kts
22-Jun-20 10:48 33.745684 -116.272795 93 59ft 0kts
22-Jun-20 10:49 33.745684 -116.272795 93 59ft 0kts
22-Jun-20 10:50 33.747164 -116.273004 303 58ft 12kts
22-Jun-20 10:51 33.749687 -116.279218 297 70ft 17kts
22-Jun-20 10:52 33.751033 -116.282396 331 75ft 0kts
22-Jun-20 10:53 33.751019 -116.281269 115 74ft 30kts
22-Jun-20 10:54 33.740642 -116.248896 82 1200ft 118kts
22-Jun-20 10:55 33.761176 -116.248650 287 2971ft 131kts
22-Jun-20 10:56 33.773645 -116.291275 287 4641ft 136kts
22-Jun-20 10:57 33.797316 -116.328141 308 6263ft 136kts
22-Jun-20 10:58 33.820490 -116.361978 305 7906ft 125kts
22-Jun-20 10:59 33.842819 -116.395861 309 9274ft 130kts
22-Jun-20 11:00 33.867188 -116.428047 309 10579ft 131kts
22-Jun-20 11:01 33.882215 -116.466843 288 11669ft 132kts
22-Jun-20 11:02 33.897810 -116.514887 288 11598ft 172kts
22-Jun-20 11:03 33.918142 -116.576003 284 11352ft 201kts
22-Jun-20 11:04 33.933813 -116.643222 283 11366ft 210kts
22-Jun-20 11:05 33.949352 -116.711267 282 11469ft 211kts
22-Jun-20 11:06 33.964925 -116.779529 282 11547ft 212kts
22-Jun-20 11:08 33.980576 -116.848159 282 11614ft 212kts
22-Jun-20 11:09 33.996192 -116.916519 282 11681ft 211kts
22-Jun-20 11:10 34.015244 -116.984200 287 11644ft 214kts
22-Jun-20 11:11 34.035791 -117.052141 293 11614ft 217kts
22-Jun-20 11:12 34.062670 -117.116652 296 11511ft 213kts
22-Jun-20 11:13 34.091293 -117.178466 299 11412ft 209kts
22-Jun-20 11:14 34.120057 -117.239238 299 11388ft 209kts
22-Jun-20 11:15 34.148560 -117.300607 298 11422ft 210kts
22-Jun-20 11:16 34.177118 -117.362520 298 11496ft 212kts
22-Jun-20 11:17 34.206124 -117.425415 298 11538ft 214kts
22-Jun-20 11:18 34.232192 -117.487187 295 12201ft 187kts
22-Jun-20 11:19 34.256240 -117.546094 295 12224ft 210kts
22-Jun-20 11:20 34.279178 -117.611045 274 12288ft 211kts
22-Jun-20 11:21 34.277641 -117.681333 272 12345ft 211kts
22-Jun-20 11:22 34.289122 -117.751330 279 12373ft 212kts
22-Jun-20 11:23 34.300632 -117.821625 279 12397ft 213kts
22-Jun-20 11:24 34.312731 -117.891864 282 12396ft 214kts
22-Jun-20 11:24 34.324065 -117.950148 280 12406ft 214kts
22-Jun-20 11:26 34.337435 -118.032548 276 12403ft 214kts
22-Jun-20 11:27 34.330660 -118.100099 215 12175ft 216kts
22-Jun-20 11:27 34.293208 -118.136203 238 12262ft 214kts
22-Jun-20 11:28 34.274367 -118.203119 250 12356ft 204kts
22-Jun-20 11:30 34.252105 -118.271571 245 10283ft 195kts
22-Jun-20 11:30 34.232902 -118.320186 243 8634ft 189kts
22-Jun-20 11:31 34.210741 -118.375240 243 6718ft 184kts
22-Jun-20 11:32 34.205522 -118.428561 300 5020ft 175kts
22-Jun-20 11:33 34.250409 -118.447141 26 3276ft 196kts
22-Jun-20 11:34 34.271102 -118.393527 91 3913ft 189kts
22-Jun-20 11:35 34.235878 -118.365863 174 1615ft 112kts
22-Jun-20 11:36 34.210101 -118.359801 169 775ft 88kts
22-Jun-20 11:37 34.205586 -118.359740 168 739ft 5kts
22-Jun-20 11:38 34.202215 -118.359487 256 729ft 0kts
22-Jun-20 11:39 34.202215 -118.359487 256 729ft 0kts
22-Jun-20 11:40 34.202215 -118.359487 256 729ft 0kts
22-Jun-20 11:41 34.202215 -118.359487 256 729ft 0kts
22-Jun-20 11:42 34.202215 -118.359487 256 729ft 0kts
22-Jun-20 11:43 34.202215 -118.359487 256 729ft 0kts
22-Jun-20 11:44 34.202215 -118.359487 256 729ft 0kts
22-Jun-20 11:45 34.202215 -118.359487 256 729ft 0kts
22-Jun-20 11:46 34.202215 -118.359487 256 729ft 0kts
22-Jun-20 11:47 34.202215 -118.359487 256 729ft 0kts
22-Jun-20 11:48 34.202215 -118.359487 256 729ft 0kts
22-Jun-20 11:49 34.202215 -118.359487 256 729ft 0kts
22-Jun-20 11:50 34.202215 -118.359487 256 729ft 0kts
22-Jun-20 11:51 34.202215 -118.359487 256 729ft 0kts
22-Jun-20 11:52 34.202215 -118.359487 256 729ft 0kts

Navigation Log

Ident Type
Flight plan parsing failed, navigation log unavailable